createdAt,value
2019-05-15T00:03:29.185Z,2.8
2019-05-15T00:08:31.334Z,3.1
2019-05-15T00:13:33.745Z,3.6
2019-05-15T00:18:36.023Z,3.1
2019-05-15T00:23:38.839Z,2.6
2019-05-15T00:28:40.590Z,2.9
2019-05-15T00:33:42.916Z,5.6
2019-05-15T00:38:45.115Z,3.9
2019-05-15T00:43:49.397Z,3.7
2019-05-15T00:48:49.640Z,5.2
2019-05-15T00:53:51.988Z,3.4
2019-05-15T00:58:54.377Z,5.1
2019-05-15T01:03:58.599Z,6
2019-05-15T01:08:59.007Z,4
2019-05-15T01:14:01.289Z,6.6
2019-05-15T01:19:03.509Z,4.3
2019-05-15T01:24:05.697Z,4.7
2019-05-15T01:29:09.205Z,6.6
2019-05-15T01:34:10.379Z,4.1
2019-05-15T01:39:12.647Z,4.4
2019-05-15T01:44:15.077Z,4.2
2019-05-15T01:49:18.657Z,6.1
2019-05-15T01:54:19.647Z,4.5
2019-05-15T01:59:21.867Z,5.5
2019-05-15T02:04:24.220Z,8.1
2019-05-15T02:09:28.029Z,5.9
2019-05-15T02:14:28.778Z,5.1
2019-05-15T02:19:31.085Z,4.7
2019-05-15T02:24:33.356Z,4.6
2019-05-15T02:29:37.704Z,4.3
2019-05-15T02:34:39.578Z,5.6
2019-05-15T02:39:40.343Z,5.9
2019-05-15T02:44:42.608Z,6.6
2019-05-15T02:49:44.909Z,3.1
2019-05-15T02:54:49.852Z,4.4
2019-05-15T02:59:49.932Z,5.7
2019-05-15T03:04:51.650Z,5.2
2019-05-15T03:09:54.016Z,4.5
2019-05-15T03:14:59.560Z,4.4
2019-05-15T03:19:59.132Z,4.9
2019-05-15T03:25:00.762Z,4
2019-05-15T03:30:03.167Z,3.6
2019-05-15T03:35:06.069Z,4.6
2019-05-15T03:40:10.360Z,4.8
2019-05-15T03:45:10.576Z,2.9
2019-05-15T03:50:12.349Z,7.7
2019-05-15T04:00:19.529Z,3.4
2019-05-15T04:05:19.858Z,6.4
2019-05-15T04:10:21.409Z,2.8
2019-05-15T04:15:23.727Z,5.2
2019-05-15T04:20:29.453Z,5
2019-05-15T04:25:29.771Z,5.7
2019-05-15T04:30:31.026Z,5.9
2019-05-15T04:35:32.976Z,4.4
2019-05-15T04:40:39.656Z,7.1
2019-05-15T04:45:39.334Z,4.9
2019-05-15T04:50:40.407Z,6.2
2019-05-15T04:55:42.142Z,5.8
2019-05-15T05:00:44.354Z,4
2019-05-15T05:05:49.555Z,3.5
2019-05-15T05:10:49.162Z,6.3
2019-05-15T05:15:51.375Z,4.5
2019-05-15T05:20:53.633Z,4.5
2019-05-15T05:25:57.969Z,3.2
2019-05-15T05:30:58.971Z,6.3
2019-05-15T05:36:00.478Z,6.6
2019-05-15T05:41:02.941Z,5.1
2019-05-15T05:46:05.063Z,5.3
2019-05-15T05:51:09.378Z,4.4
2019-05-15T05:56:09.634Z,4.1
2019-05-15T06:01:12.034Z,4.8
2019-05-15T06:06:14.385Z,4
2019-05-15T06:11:18.445Z,4.6
2019-05-15T06:16:19.888Z,4.7
2019-05-15T06:21:21.265Z,5.1
2019-05-15T06:26:23.411Z,4.3
2019-05-15T06:31:27.961Z,4.1
2019-05-15T06:36:28.903Z,4.6
2019-05-15T06:41:30.300Z,4.7
2019-05-15T06:46:32.616Z,5.1
2019-05-15T06:51:34.857Z,4.5
2019-05-15T06:56:38.821Z,6.4
2019-05-15T07:01:39.410Z,5.2
2019-05-15T07:06:41.729Z,5.3
2019-05-15T07:11:44.081Z,6.2
2019-05-15T07:16:48.788Z,3.3
2019-05-15T07:21:48.809Z,4.4
2019-05-15T07:26:51.795Z,3.3
2019-05-15T07:31:53.274Z,3.2
2019-05-15T07:36:55.548Z,6.7
2019-05-15T07:41:57.961Z,4.5
2019-05-15T07:47:00.280Z,4
2019-05-15T07:52:02.455Z,4.5
2019-05-15T07:57:04.780Z,2.9
2019-05-15T08:02:08.454Z,4.7
2019-05-15T08:07:09.297Z,3.6
2019-05-15T08:12:11.579Z,3.5
2019-05-15T08:17:13.834Z,2.8
2019-05-15T08:22:18.193Z,1.8
2019-05-15T08:27:19.136Z,3.2
2019-05-15T08:32:20.899Z,2.6
2019-05-15T08:37:23.139Z,3.2
2019-05-15T08:42:27.984Z,3.9
2019-05-15T08:47:29.644Z,2.5
2019-05-15T08:52:29.944Z,3.2
2019-05-15T08:57:32.296Z,2.8
2019-05-15T09:02:34.504Z,3.1
2019-05-15T09:07:38.375Z,1.7
2019-05-15T09:12:39.173Z,1.4
2019-05-15T09:17:41.494Z,1.4
2019-05-15T09:22:44.940Z,2.5
2019-05-15T09:27:48.636Z,0.9
2019-05-15T09:32:48.655Z,1.2
2019-05-15T09:37:50.646Z,0.9
2019-05-15T09:42:52.911Z,1
2019-05-15T09:47:55.174Z,1.7
2019-05-15T09:52:58.816Z,2.7
2019-05-15T09:57:59.752Z,0.6
2019-05-15T10:03:02.061Z,1.1
2019-05-15T10:08:04.310Z,2.9
2019-05-15T10:13:08.881Z,1.7
2019-05-15T10:18:10.341Z,2.2
2019-05-15T10:23:11.336Z,1.4
2019-05-15T10:28:15.339Z,2.2
2019-05-15T10:33:15.860Z,2.1
2019-05-15T10:38:19.373Z,1.8
2019-05-15T10:43:20.985Z,0.9
2019-05-15T10:48:22.780Z,3.8
2019-05-15T10:53:24.928Z,3.5
2019-05-15T10:58:28.613Z,1.6
2019-05-15T11:03:29.938Z,3
2019-05-15T11:08:32.026Z,2.6
2019-05-15T11:13:34.148Z,2.4
2019-05-15T11:18:39.095Z,1.7
2019-05-15T11:23:42.308Z,1.1
2019-05-15T11:28:41.110Z,1.9
2019-05-15T11:33:43.455Z,1.2
2019-05-15T11:38:45.704Z,2.4
2019-05-15T11:43:49.530Z,2.9
2019-05-15T11:48:50.216Z,3.1
2019-05-15T11:53:52.468Z,2.9
2019-05-15T11:58:54.774Z,0.4
2019-05-15T12:03:58.542Z,3.1
2019-05-15T12:08:59.457Z,1.6
2019-05-15T12:14:01.722Z,1.4
2019-05-15T12:19:09.057Z,1.5
2019-05-15T12:24:08.961Z,1.8
2019-05-15T12:29:39.823Z,2.1
2019-05-15T12:34:11.174Z,1.6
2019-05-15T12:39:13.804Z,1.6
2019-05-15T12:59:52.341Z,1.5
2019-05-15T13:04:24.651Z,1.9
2019-05-15T13:09:27.735Z,1.2
2019-05-15T13:14:29.363Z,5.5
2019-05-15T13:19:31.522Z,0.8
2019-05-15T13:24:33.903Z,1.1
2019-05-15T13:29:36.215Z,1.3
2019-05-15T13:34:39.009Z,1.6
2019-05-15T13:39:40.664Z,1.4
2019-05-15T13:44:42.910Z,2.1
2019-05-15T13:49:45.293Z,2.3
2019-05-15T13:54:48.333Z,1.3
2019-05-15T13:59:49.890Z,2.6
2019-05-15T14:04:52.218Z,1.2
2019-05-15T14:09:54.456Z,2.1
2019-05-15T14:14:58.183Z,1.5
2019-05-15T14:19:59.236Z,0.9
2019-05-15T14:25:01.524Z,2.1
2019-05-15T14:30:03.714Z,1.3
2019-05-15T14:35:05.952Z,0.9
2019-05-15T14:40:09.827Z,1.1
2019-05-15T14:45:10.572Z,4
2019-05-15T14:50:12.807Z,1.6
2019-05-15T14:55:15.104Z,1.1
2019-05-15T15:00:20.006Z,1
2019-05-15T15:05:21.509Z,1.6
2019-05-15T15:10:22.025Z,2.7
2019-05-15T15:20:28.513Z,1.5
2019-05-15T15:25:28.977Z,1.8
2019-05-15T15:30:31.171Z,2.9
2019-05-15T15:35:33.434Z,2.6
2019-05-15T15:40:35.753Z,3.1
2019-05-15T15:45:39.165Z,1.9
2019-05-15T15:50:40.418Z,1.9
2019-05-15T15:55:44.208Z,1.8
2019-05-15T16:00:45.118Z,2.8
2019-05-15T16:05:48.872Z,2.6
2019-05-15T16:10:49.626Z,2.6
2019-05-15T16:15:51.964Z,1.7
2019-05-15T16:20:54.479Z,2.6
2019-05-15T16:26:00.604Z,2.1
2019-05-15T16:31:00.298Z,2.1
2019-05-15T16:36:01.160Z,1.9
2019-05-15T16:41:03.317Z,2.8
2019-05-15T16:46:05.506Z,3.4
2019-05-15T16:51:09.211Z,2.4
2019-05-15T16:56:10.153Z,1.5
2019-05-15T17:01:12.469Z,1.7
2019-05-15T17:06:14.697Z,3
2019-05-15T17:11:19.676Z,1.4
2019-05-15T17:16:19.474Z,1.1
2019-05-15T17:21:21.624Z,1.5
2019-05-15T17:26:23.885Z,2
2019-05-15T17:31:28.512Z,1.2
2019-05-15T17:36:31.870Z,1.5
2019-05-15T17:41:30.835Z,0.8
2019-05-15T17:46:33.036Z,3.1
2019-05-15T17:51:35.340Z,1.8
2019-05-15T17:56:39.193Z,1.8
2019-05-15T18:01:40.024Z,1.2
2019-05-15T18:06:42.231Z,1.3
2019-05-15T18:11:44.737Z,1.6
2019-05-15T18:16:48.738Z,2.9
2019-05-15T18:21:49.765Z,1.3
2019-05-15T18:26:51.499Z,2.3
2019-05-15T18:31:53.688Z,1.6
2019-05-15T18:36:57.865Z,1.1
2019-05-15T18:41:58.376Z,0.7
2019-05-15T18:47:00.638Z,1.7
2019-05-15T18:52:03.033Z,0.7
2019-05-15T18:57:05.375Z,1.2
2019-05-15T19:02:08.029Z,2
2019-05-15T19:07:09.739Z,1
2019-05-15T19:12:12.205Z,0.7
2019-05-15T19:17:14.390Z,0.7
2019-05-15T19:22:19.064Z,0.9
2019-05-15T19:27:19.091Z,1.2
2019-05-15T19:32:21.482Z,1.1
2019-05-15T19:37:23.558Z,0.9
2019-05-15T19:42:28.656Z,1.1
2019-05-15T19:47:28.295Z,0.9
2019-05-15T19:52:30.464Z,1.2
2019-05-15T19:57:32.672Z,1.8
2019-05-15T20:02:35.029Z,0.9
2019-05-15T20:07:39.083Z,2.1
2019-05-15T20:12:39.614Z,1
2019-05-15T20:17:41.927Z,1.1
2019-05-15T20:22:44.405Z,2.1
2019-05-15T20:27:48.316Z,1.5
2019-05-15T20:32:48.891Z,1.1
2019-05-15T20:37:51.340Z,1.7
2019-05-15T20:42:53.435Z,1.6
2019-05-15T20:47:58.102Z,1.3
2019-05-15T20:52:58.802Z,2.6
2019-05-15T20:58:00.310Z,1.3
2019-05-15T21:03:02.617Z,2
2019-05-15T21:08:04.861Z,2.3
2019-05-15T21:13:07.196Z,1.2
2019-05-15T21:18:29.037Z,3.9
2019-05-15T21:23:28.547Z,1.9
2019-05-15T21:28:30.051Z,0.8
2019-05-15T21:33:31.774Z,0.6
2019-05-15T21:38:34.095Z,0.9
2019-05-15T21:43:36.405Z,1.6
2019-05-15T21:48:38.695Z,1.8
2019-05-15T21:53:42.144Z,1.9
2019-05-15T21:58:43.252Z,2.4
2019-05-15T22:03:45.467Z,1.9
2019-05-15T22:08:47.935Z,2.1
2019-05-15T22:13:50.167Z,1.4
2019-05-15T22:18:52.518Z,2.2
2019-05-15T22:23:54.715Z,2
2019-05-15T22:28:58.432Z,1.5
2019-05-15T22:33:59.237Z,2.1
2019-05-15T22:39:01.712Z,2.3
2019-05-15T22:44:03.991Z,2.3
2019-05-15T22:49:06.333Z,1.4
2019-05-15T22:54:08.805Z,2.3
2019-05-15T22:59:10.754Z,1.5
2019-05-15T23:04:13.015Z,3.3
2019-05-15T23:09:15.444Z,2
2019-05-15T23:14:18.075Z,5
2019-05-15T23:19:20.091Z,2.3
2019-05-15T23:24:22.347Z,1.8
2019-05-15T23:29:25.465Z,1.7
2019-05-15T23:34:28.027Z,2.4
2019-05-15T23:39:29.191Z,3.7
2019-05-15T23:44:31.409Z,2.6
2019-05-15T23:49:33.781Z,1.3
2019-05-15T23:59:38.530Z,1.5
